Time;durP1;ratioP1;P1;durP2;ratioP2;P2;SDS_P1;SDS_P2;PMS_P1;PMS_P2;Temp;Humidity;BMP_temperature;BMP_pressure;BME280_temperature;BME280_humidity;BME280_pressure;Samples;Min_cycle;Max_cycle;Signal;HPM_P1;HPM_P2
2022/06/16 00:00:36;;;;;;;4.25;3.88;;;19.90;99.90;;;;;;5032617;28;20241;-93
2022/06/16 00:03:05;;;;;;;3.38;2.95;;;19.90;99.90;;;;;;5032597;28;20222;-92
2022/06/16 00:05:36;;;;;;;4.07;3.58;;;19.80;99.90;;;;;;5033299;28;20233;-92
2022/06/16 00:08:07;;;;;;;3.15;2.85;;;19.80;99.90;;;;;;5033822;28;20207;-93
2022/06/16 00:10:36;;;;;;;4.28;3.88;;;19.70;99.90;;;;;;5032583;28;20206;-93
2022/06/16 00:13:05;;;;;;;4.30;3.60;;;19.70;99.90;;;;;;5032934;28;20225;-93
2022/06/16 00:15:34;;;;;;;3.17;2.97;;;19.70;99.90;;;;;;5032699;28;20234;-93
2022/06/16 00:18:02;;;;;;;3.33;3.03;;;19.60;99.90;;;;;;5032626;28;20206;-93
2022/06/16 00:20:30;;;;;;;5.53;4.07;;;19.60;99.90;;;;;;5032510;28;20233;-93
2022/06/16 00:23:00;;;;;;;3.83;3.33;;;19.50;99.90;;;;;;5032614;28;20347;-93
2022/06/16 00:25:28;;;;;;;4.32;3.53;;;19.50;99.90;;;;;;5032615;28;20206;-93
2022/06/16 00:27:57;;;;;;;4.80;4.28;;;19.50;99.90;;;;;;5032815;28;20237;-93
2022/06/16 00:30:25;;;;;;;5.90;4.63;;;19.40;99.90;;;;;;5033550;28;20230;-93
2022/06/16 00:32:53;;;;;;;5.07;4.38;;;19.40;99.90;;;;;;5033806;28;20231;-93
2022/06/16 00:35:22;;;;;;;8.27;4.30;;;19.30;99.90;;;;;;5034086;28;20295;-93
2022/06/16 00:37:50;;;;;;;5.13;4.63;;;19.30;99.90;;;;;;5043939;28;20218;-93
2022/06/16 00:40:20;;;;;;;4.28;3.95;;;19.30;99.90;;;;;;5036362;28;20218;-93
2022/06/16 00:42:49;;;;;;;4.70;4.25;;;19.20;99.90;;;;;;5036200;28;20272;-93
2022/06/16 00:45:45;;;;;;;4.53;3.92;;;19.10;99.90;;;;;;5035965;28;20220;-93
2022/06/16 00:48:18;;;;;;;4.40;4.00;;;18.90;99.90;;;;;;5036381;28;20214;-93
2022/06/16 00:50:49;;;;;;;7.43;4.85;;;18.90;99.90;;;;;;5036917;28;20276;-93
2022/06/16 00:53:18;;;;;;;5.40;4.43;;;18.80;99.90;;;;;;5037759;28;20299;-93
2022/06/16 00:55:49;;;;;;;4.93;4.45;;;18.80;99.90;;;;;;5037315;28;20245;-93
2022/06/16 00:58:18;;;;;;;10.70;3.85;;;18.70;99.90;;;;;;5043675;28;20277;-93
2022/06/16 01:00:47;;;;;;;10.90;5.05;;;18.60;99.90;;;;;;5036734;28;20248;-93
2022/06/16 01:04:51;;;;;;;6.15;4.72;;;18.60;99.90;;;;;;5036180;28;20223;-93
2022/06/16 01:06:18;;;;;;;4.90;4.45;;;18.50;99.90;;;;;;5036236;28;20210;-93
2022/06/16 01:08:48;;;;;;;4.60;4.20;;;18.50;99.90;;;;;;5035932;28;20296;-93
2022/06/16 01:14:22;;;;;;;4.80;4.40;;;18.40;99.90;;;;;;5036077;28;20253;-93
2022/06/16 01:16:55;;;;;;;5.10;4.63;;;18.40;99.90;;;;;;5036169;28;20225;-93
2022/06/16 01:19:45;;;;;;;5.57;5.03;;;18.40;99.90;;;;;;5035846;28;20227;-93
2022/06/16 01:22:27;;;;;;;4.55;4.18;;;18.30;99.90;;;;;;5035866;28;20263;-93
2022/06/16 01:25:08;;;;;;;5.10;4.63;;;18.30;99.90;;;;;;5035984;28;20230;-93
2022/06/16 01:27:58;;;;;;;8.52;5.05;;;18.30;99.90;;;;;;5035754;28;20241;-93
2022/06/16 01:30:36;;;;;;;12.13;4.68;;;18.20;99.90;;;;;;5035026;28;20210;-93
2022/06/16 01:33:10;;;;;;;7.68;5.40;;;18.30;99.90;;;;;;5036077;28;20198;-93
2022/06/16 01:35:47;;;;;;;5.05;4.55;;;18.20;99.90;;;;;;5035546;28;20206;-93
2022/06/16 01:38:23;;;;;;;6.80;5.32;;;18.10;99.90;;;;;;5036084;28;20214;-93
2022/06/16 01:40:57;;;;;;;5.30;4.90;;;18.10;99.90;;;;;;5035578;28;20225;-93
2022/06/16 01:43:30;;;;;;;6.65;4.20;;;18.10;99.90;;;;;;5035329;28;20252;-93
2022/06/16 01:46:05;;;;;;;4.95;4.50;;;18.00;99.90;;;;;;5035533;28;20214;-93
2022/06/16 01:48:36;;;;;;;5.07;4.68;;;18.00;99.90;;;;;;5033989;28;20226;-93
2022/06/16 01:51:09;;;;;;;6.47;4.68;;;18.00;99.90;;;;;;5035036;28;20229;-93
2022/06/16 01:53:43;;;;;;;5.20;4.70;;;17.90;99.90;;;;;;5035413;28;20226;-93
2022/06/16 01:56:17;;;;;;;5.53;4.70;;;17.90;99.90;;;;;;5035427;28;20301;-93
2022/06/16 01:58:51;;;;;;;5.30;4.00;;;17.90;99.90;;;;;;5035033;28;20327;-93
2022/06/16 02:01:24;;;;;;;4.63;4.25;;;17.90;99.90;;;;;;5035355;28;20237;-93
2022/06/16 02:03:56;;;;;;;6.18;4.80;;;17.90;99.90;;;;;;5034960;28;20248;-93
2022/06/16 02:06:30;;;;;;;4.75;4.38;;;17.80;99.90;;;;;;5035505;28;20198;-93
2022/06/16 02:09:02;;;;;;;4.50;4.10;;;17.80;99.90;;;;;;5035237;28;20250;-93
2022/06/16 02:11:33;;;;;;;5.82;4.93;;;17.80;99.90;;;;;;5034550;28;20215;-93
2022/06/16 02:14:12;;;;;;;6.80;4.82;;;17.80;99.90;;;;;;5035230;28;20301;-93
2022/06/16 02:16:43;;;;;;;6.35;5.00;;;17.70;99.90;;;;;;5035090;28;20211;-93
2022/06/16 02:19:16;;;;;;;4.40;4.00;;;17.70;99.90;;;;;;5034869;28;20305;-93
2022/06/16 02:21:46;;;;;;;5.78;4.85;;;17.70;99.90;;;;;;5034525;28;20285;-93
2022/06/16 02:24:18;;;;;;;4.60;4.20;;;17.70;99.90;;;;;;5034475;28;20250;-93
2022/06/16 02:26:47;;;;;;;10.73;5.28;;;17.60;99.90;;;;;;5034672;28;20301;-93
2022/06/16 02:29:26;;;;;;;4.50;4.05;;;17.60;99.90;;;;;;5034750;28;20227;-93
2022/06/16 02:32:24;;;;;;;5.85;5.25;;;17.60;99.90;;;;;;5034559;28;20283;-92
2022/06/16 02:35:03;;;;;;;4.40;4.05;;;17.60;99.90;;;;;;5034784;28;20229;-93
2022/06/16 02:37:45;;;;;;;5.13;4.68;;;17.60;99.90;;;;;;5034367;28;20289;-92
2022/06/16 02:40:29;;;;;;;5.10;4.68;;;17.60;99.90;;;;;;5034081;28;20304;-93
2022/06/16 02:43:06;;;;;;;4.70;4.32;;;17.50;99.90;;;;;;5033933;28;20222;-93
2022/06/16 02:45:41;;;;;;;5.53;4.88;;;17.50;99.90;;;;;;5033914;28;20264;-93
2022/06/16 02:48:16;;;;;;;5.30;4.75;;;17.50;99.90;;;;;;5034200;28;20209;-93
2022/06/16 02:50:55;;;;;;;5.45;4.82;;;17.50;99.90;;;;;;5033880;28;20206;-93
2022/06/16 02:53:35;;;;;;;5.70;5.20;;;17.50;99.90;;;;;;5034208;28;20233;-92
2022/06/16 02:56:11;;;;;;;5.93;5.00;;;17.50;99.90;;;;;;5034204;28;20209;-92
2022/06/16 02:58:44;;;;;;;4.20;3.85;;;17.50;99.90;;;;;;5034089;28;20233;-93
2022/06/16 03:01:13;;;;;;;4.45;4.15;;;17.50;99.90;;;;;;5033735;28;20206;-93
2022/06/16 03:03:43;;;;;;;5.47;4.97;;;17.40;99.90;;;;;;5033940;28;20252;-93
2022/06/16 03:06:12;;;;;;;5.32;4.85;;;17.40;99.90;;;;;;5034041;28;20264;-93
2022/06/16 03:08:43;;;;;;;4.70;4.30;;;17.40;99.90;;;;;;5033773;28;20230;-93
2022/06/16 03:11:12;;;;;;;6.32;4.78;;;17.40;99.90;;;;;;5033671;28;20210;-93
2022/06/16 03:13:41;;;;;;;4.50;4.10;;;17.40;99.90;;;;;;5033588;28;20202;-93
2022/06/16 03:16:11;;;;;;;6.93;4.55;;;17.40;99.90;;;;;;5033920;28;20202;-93
2022/06/16 03:18:41;;;;;;;5.32;4.82;;;17.50;99.90;;;;;;5033879;28;20226;-93
2022/06/16 03:21:10;;;;;;;4.03;3.72;;;17.50;99.90;;;;;;5033437;28;20264;-93
2022/06/16 03:23:39;;;;;;;4.97;4.22;;;17.40;99.90;;;;;;5033409;28;20245;-92
2022/06/16 03:26:07;;;;;;;4.80;4.38;;;17.40;99.90;;;;;;5033330;28;20229;-93
2022/06/16 03:28:36;;;;;;;5.65;4.50;;;17.40;99.90;;;;;;5033236;28;20258;-93
2022/06/16 03:31:04;;;;;;;7.05;5.18;;;17.40;99.90;;;;;;5033117;28;20234;-93
2022/06/16 03:33:33;;;;;;;5.05;4.32;;;17.40;99.90;;;;;;5033014;28;20213;-93
2022/06/16 03:36:01;;;;;;;5.30;4.82;;;17.50;99.90;;;;;;5033615;28;20210;-93
2022/06/16 03:38:35;;;;;;;4.75;4.30;;;17.50;99.90;;;;;;5033106;28;20309;-93
2022/06/16 03:41:03;;;;;;;7.50;4.43;;;17.50;99.90;;;;;;5032910;28;20206;-92
2022/06/16 03:43:31;;;;;;;4.15;3.85;;;17.50;99.90;;;;;;5032860;28;20230;-93
2022/06/16 03:46:00;;;;;;;5.32;4.82;;;17.50;99.90;;;;;;5032597;28;20202;-92
2022/06/16 03:48:28;;;;;;;5.50;4.65;;;17.50;99.90;;;;;;5032894;28;20222;-93
2022/06/16 03:50:57;;;;;;;6.25;4.95;;;17.60;99.90;;;;;;5032678;28;20206;-93
2022/06/16 03:53:26;;;;;;;4.43;4.03;;;17.60;99.90;;;;;;5033070;28;20222;-93
2022/06/16 03:55:56;;;;;;;4.90;4.15;;;17.60;99.90;;;;;;5032781;28;20293;-93
2022/06/16 03:58:24;;;;;;;7.85;5.10;;;17.60;99.90;;;;;;5033067;28;20222;-93
2022/06/16 04:00:52;;;;;;;4.97;4.57;;;17.60;99.90;;;;;;5032919;28;20198;-93
2022/06/16 04:06:06;;;;;;;5.07;4.50;;;17.60;99.90;;;;;;5033161;28;20206;-93
2022/06/16 04:08:35;;;;;;;7.90;4.72;;;17.60;99.90;;;;;;5032841;28;20318;-92
2022/06/16 04:11:26;;;;;;;8.43;5.22;;;17.60;99.90;;;;;;5031977;28;20214;-93
2022/06/16 04:13:54;;;;;;;5.13;4.63;;;17.60;99.90;;;;;;5032870;28;20206;-93
2022/06/16 04:16:22;;;;;;;5.28;4.80;;;17.60;99.90;;;;;;5032679;28;20297;-92
2022/06/16 04:18:51;;;;;;;5.25;4.70;;;17.60;99.90;;;;;;5032648;28;20280;-93
2022/06/16 04:21:19;;;;;;;14.13;5.03;;;17.60;99.90;;;;;;5032490;28;20225;-93
2022/06/16 04:23:48;;;;;;;6.05;5.45;;;17.60;99.90;;;;;;5032548;28;20226;-93
2022/06/16 04:26:18;;;;;;;5.55;4.80;;;17.70;99.90;;;;;;5032360;28;20209;-92
2022/06/16 04:28:47;;;;;;;9.00;5.13;;;17.70;99.90;;;;;;5032554;28;20222;-92
2022/06/16 04:31:15;;;;;;;5.28;4.65;;;17.70;99.90;;;;;;5032495;28;20297;-93
2022/06/16 04:33:43;;;;;;;6.13;5.53;;;17.70;99.90;;;;;;5032437;28;20210;-92
2022/06/16 04:36:14;;;;;;;6.20;5.60;;;17.80;99.90;;;;;;5032637;28;20233;-93
2022/06/16 04:38:44;;;;;;;5.03;4.63;;;17.80;99.90;;;;;;5032435;28;20230;-93
2022/06/16 04:41:12;;;;;;;5.47;4.93;;;17.80;99.90;;;;;;5032461;28;20210;-93
2022/06/16 04:43:42;;;;;;;5.70;5.10;;;17.80;99.90;;;;;;5032864;28;20210;-92
2022/06/16 04:46:13;;;;;;;5.00;4.60;;;17.90;99.90;;;;;;5032285;28;20207;-93
2022/06/16 04:48:43;;;;;;;5.82;5.32;;;17.90;99.90;;;;;;5032504;28;20307;-93
2022/06/16 04:51:16;;;;;;;5.28;4.85;;;17.90;99.90;;;;;;5032496;28;20226;-93
2022/06/16 04:53:44;;;;;;;4.60;4.20;;;18.00;99.90;;;;;;5032573;28;20202;-93
2022/06/16 04:56:13;;;;;;;6.43;5.85;;;18.00;99.90;;;;;;5033003;28;20270;-93
2022/06/16 04:58:42;;;;;;;6.22;4.95;;;18.00;99.90;;;;;;5032783;28;20226;-93
2022/06/16 05:01:11;;;;;;;6.45;5.55;;;18.10;99.90;;;;;;5032525;28;20198;-93
2022/06/16 05:03:48;;;;;;;6.40;4.80;;;18.20;99.90;;;;;;5038367;28;20206;-93
2022/06/16 05:06:17;;;;;;;5.95;4.97;;;18.20;99.90;;;;;;5032947;28;20270;-93
2022/06/16 05:08:47;;;;;;;8.05;5.75;;;18.30;99.90;;;;;;5032440;28;20305;-93
2022/06/16 05:11:15;;;;;;;7.18;5.47;;;18.30;99.90;;;;;;5032387;28;20220;-93
2022/06/16 05:13:45;;;;;;;4.78;4.40;;;18.30;99.90;;;;;;5032620;28;20288;-93
2022/06/16 05:16:13;;;;;;;5.40;4.95;;;18.40;99.90;;;;;;5032153;28;20280;-93
2022/06/16 05:18:42;;;;;;;6.15;5.28;;;18.50;99.90;;;;;;5032711;28;20229;-93
2022/06/16 05:21:13;;;;;;;4.93;4.35;;;18.50;99.90;;;;;;5032430;28;20287;-93
2022/06/16 05:23:41;;;;;;;7.35;4.75;;;18.50;99.90;;;;;;5035091;28;20265;-93
2022/06/16 05:26:10;;;;;;;5.75;5.05;;;18.60;99.90;;;;;;5042440;28;20246;-92
2022/06/16 05:28:39;;;;;;;5.70;5.15;;;18.60;99.90;;;;;;5036649;28;20245;-93
2022/06/16 05:31:09;;;;;;;5.00;4.50;;;18.70;99.90;;;;;;5035848;28;20210;-93
2022/06/16 05:33:38;;;;;;;4.30;4.00;;;18.70;99.90;;;;;;5035620;28;20203;-93
2022/06/16 05:36:09;;;;;;;7.20;4.75;;;18.80;99.90;;;;;;5035627;28;20202;-93
2022/06/16 05:38:38;;;;;;;5.25;4.75;;;18.80;99.90;;;;;;5035182;28;20295;-93
2022/06/16 05:41:10;;;;;;;4.28;3.88;;;18.90;99.90;;;;;;5035673;28;20202;-93
2022/06/16 05:43:39;;;;;;;4.60;4.25;;;19.00;99.90;;;;;;5035656;28;20276;-93
2022/06/16 05:46:14;;;;;;;6.55;4.53;;;19.10;99.90;;;;;;5034597;28;20219;-93
2022/06/16 05:48:43;;;;;;;4.90;4.40;;;19.20;99.90;;;;;;5035023;28;20321;-93
2022/06/16 05:51:14;;;;;;;6.13;4.35;;;19.20;99.90;;;;;;5035621;28;20300;-93
2022/06/16 05:53:42;;;;;;;5.28;4.13;;;19.30;99.90;;;;;;5035558;28;20249;-93
2022/06/16 05:56:12;;;;;;;4.40;4.00;;;19.40;99.90;;;;;;5035298;28;20198;-93
2022/06/16 05:58:41;;;;;;;4.18;3.83;;;19.40;99.90;;;;;;5035194;28;20218;-93
2022/06/16 06:01:13;;;;;;;4.53;4.15;;;19.40;99.90;;;;;;5034910;28;20206;-92
2022/06/16 06:03:43;;;;;;;4.85;4.38;;;19.50;99.90;;;;;;5035424;28;20207;-92
2022/06/16 06:06:12;;;;;;;4.18;3.72;;;19.60;99.90;;;;;;5034793;28;20223;-92
2022/06/16 06:17:19;;;;;;;4.40;4.00;;;19.90;99.90;;;;;;5029673;28;20211;-93
2022/06/16 06:19:48;;;;;;;11.32;3.67;;;20.00;99.90;;;;;;5034915;28;20226;-93
2022/06/16 06:22:19;;;;;;;6.18;3.97;;;20.10;99.90;;;;;;5035049;28;20203;-92
2022/06/16 06:24:49;;;;;;;4.28;3.88;;;20.10;99.90;;;;;;5034863;28;20233;-92
2022/06/16 06:27:20;;;;;;;4.50;4.13;;;20.20;99.90;;;;;;5034959;28;20261;-92
2022/06/16 06:29:50;;;;;;;7.15;4.60;;;20.30;99.90;;;;;;5034975;28;20257;-92
2022/06/16 06:32:23;;;;;;;3.67;3.38;;;20.30;99.90;;;;;;5035029;28;20233;-92
2022/06/16 06:34:52;;;;;;;3.97;3.67;;;20.40;99.90;;;;;;5034396;28;20207;-94
2022/06/16 06:37:23;;;;;;;4.25;3.83;;;20.50;99.90;;;;;;5034517;28;20279;-93
2022/06/16 06:39:52;;;;;;;4.35;3.92;;;20.50;99.90;;;;;;5034277;28;20223;-92
2022/06/16 06:42:21;;;;;;;4.45;4.05;;;20.60;99.90;;;;;;5034136;28;20210;-93
2022/06/16 06:44:49;;;;;;;8.18;3.97;;;20.70;99.90;;;;;;5033658;28;20203;-93
2022/06/16 06:47:22;;;;;;;4.28;3.88;;;20.80;99.90;;;;;;5034332;28;20220;-93
2022/06/16 06:49:52;;;;;;;3.90;3.60;;;20.90;99.90;;;;;;5034331;28;20388;-93
2022/06/16 06:52:22;;;;;;;3.63;3.30;;;21.00;99.90;;;;;;5034505;28;20213;-93
2022/06/16 06:54:52;;;;;;;4.20;3.85;;;21.10;99.90;;;;;;5034242;28;20210;-93
2022/06/16 06:57:24;;;;;;;4.82;4.38;;;21.20;99.90;;;;;;5034240;28;20206;-93
2022/06/16 06:59:55;;;;;;;3.97;3.67;;;21.30;99.90;;;;;;5034430;28;20223;-93
2022/06/16 07:02:25;;;;;;;5.72;4.25;;;21.50;99.90;;;;;;5034328;28;20297;-93
2022/06/16 07:04:54;;;;;;;3.75;3.45;;;21.70;99.90;;;;;;5033969;28;20234;-93
2022/06/16 07:07:25;;;;;;;5.47;4.55;;;21.90;99.90;;;;;;5034108;28;20236;-93
2022/06/16 07:09:53;;;;;;;13.50;4.03;;;22.30;99.90;;;;;;5033877;28;20235;-94
2022/06/16 07:12:22;;;;;;;4.07;3.67;;;22.70;99.90;;;;;;5033987;28;20235;-94
2022/06/16 07:14:52;;;;;;;3.97;3.60;;;23.00;99.90;;;;;;5034109;28;20206;-95
2022/06/16 07:17:22;;;;;;;4.65;4.07;;;23.30;99.90;;;;;;5033666;28;20277;-94
2022/06/16 07:19:53;;;;;;;4.80;4.10;;;23.70;99.90;;;;;;5033549;28;20249;-94
2022/06/16 07:22:22;;;;;;;4.93;4.05;;;24.40;99.90;;;;;;5033598;28;20206;-94
2022/06/16 07:24:50;;;;;;;4.32;3.92;;;25.10;99.90;;;;;;5033635;28;20230;-94
2022/06/16 07:27:21;;;;;;;3.28;3.08;;;25.70;99.90;;;;;;5033170;28;20257;-94
2022/06/16 07:29:50;;;;;;;3.88;3.47;;;26.20;99.90;;;;;;5033635;28;20226;-94
2022/06/16 07:32:19;;;;;;;4.05;3.60;;;26.70;99.90;;;;;;5033118;28;20218;-94
2022/06/16 07:34:48;;;;;;;4.18;2.92;;;27.20;99.90;;;;;;5033266;28;20207;-94
2022/06/16 07:37:19;;;;;;;4.15;3.75;;;28.30;99.90;;;;;;5033402;28;20245;-94
2022/06/16 07:39:50;;;;;;;3.80;3.38;;;28.80;99.90;;;;;;5033740;28;20247;-94
2022/06/16 07:42:23;;;;;;;3.70;2.95;;;29.40;99.90;;;;;;5033596;28;20288;-94
2022/06/16 07:44:51;;;;;;;4.63;3.25;;;29.90;99.90;;;;;;5032551;28;20206;-94
2022/06/16 07:47:20;;;;;;;3.00;2.80;;;30.60;99.90;;;;;;5033101;28;20214;-94
2022/06/16 07:49:49;;;;;;;3.67;3.05;;;31.60;97.90;;;;;;5033353;28;20230;-94
2022/06/16 07:52:19;;;;;;;3.97;3.58;;;32.40;97.10;;;;;;5033425;28;20206;-94
2022/06/16 07:54:50;;;;;;;3.50;3.20;;;32.50;94.00;;;;;;5033443;28;20205;-93
2022/06/16 07:57:21;;;;;;;3.17;2.88;;;33.40;92.50;;;;;;5032962;28;20205;-94
2022/06/16 07:59:58;;;;;;;3.88;2.90;;;34.20;91.80;;;;;;5033169;28;20229;-94
2022/06/16 08:02:28;;;;;;;3.33;3.03;;;34.60;90.60;;;;;;5032771;28;20223;-93
2022/06/16 08:04:56;;;;;;;3.20;2.97;;;33.80;88.00;;;;;;5032898;28;20198;-94
2022/06/16 08:07:27;;;;;;;3.83;3.45;;;33.50;87.90;;;;;;5032840;28;20232;-94
2022/06/16 08:09:55;;;;;;;6.55;3.67;;;33.00;90.40;;;;;;5033215;28;20224;-92
2022/06/16 08:12:24;;;;;;;3.10;2.85;;;32.30;90.00;;;;;;5032948;28;20210;-93
2022/06/16 08:14:53;;;;;;;3.70;3.40;;;32.00;90.80;;;;;;5033122;28;20206;-92
2022/06/16 08:17:25;;;;;;;5.50;3.35;;;32.70;89.90;;;;;;5032899;28;20250;-92
2022/06/16 08:19:55;;;;;;;4.25;3.50;;;33.90;89.70;;;;;;5032866;28;20229;-93
2022/06/16 08:22:24;;;;;;;3.90;3.13;;;34.50;85.40;;;;;;5033031;28;20213;-92
2022/06/16 08:24:56;;;;;;;3.65;3.35;;;34.20;83.80;;;;;;5033016;28;20256;-93
2022/06/16 08:27:29;;;;;;;3.65;3.40;;;34.80;83.00;;;;;;5032550;28;20225;-93
2022/06/16 08:30:00;;;;;;;7.95;3.67;;;34.50;84.90;;;;;;5032606;28;20245;-92
2022/06/16 08:32:29;;;;;;;4.32;2.85;;;34.30;83.30;;;;;;5032527;28;20292;-92
2022/06/16 08:34:57;;;;;;;3.63;3.33;;;33.60;84.40;;;;;;5032785;28;20213;-92
2022/06/16 08:37:33;;;;;;;3.20;2.97;;;32.90;84.90;;;;;;5032967;28;20205;-92
2022/06/16 08:40:08;;;;;;;3.05;2.85;;;33.40;85.70;;;;;;5032593;28;20249;-92
2022/06/16 08:42:43;;;;;;;3.67;3.38;;;33.40;84.70;;;;;;5032917;28;20202;-93
2022/06/16 08:45:26;;;;;;;3.05;2.85;;;33.30;84.90;;;;;;5032820;28;20288;-92
2022/06/16 08:48:15;;;;;;;3.20;2.95;;;33.50;87.10;;;;;;5032198;28;20229;-92
2022/06/16 08:50:52;;;;;;;3.75;3.42;;;34.10;84.40;;;;;;5032489;28;20198;-92
2022/06/16 08:53:36;;;;;;;3.35;3.05;;;34.10;82.90;;;;;;5032407;28;20209;-92
2022/06/16 08:56:09;;;;;;;4.35;2.55;;;34.30;82.80;;;;;;5032662;28;20224;-92
2022/06/16 08:58:43;;;;;;;2.58;2.38;;;34.30;82.80;;;;;;5036099;28;20241;-92
2022/06/16 09:01:23;;;;;;;10.00;3.58;;;34.80;83.50;;;;;;5035856;28;20202;-90
2022/06/16 09:04:00;;;;;;;3.05;2.78;;;35.50;80.20;;;;;;5036584;28;20209;-92
2022/06/16 09:06:39;;;;;;;2.80;2.63;;;36.00;78.30;;;;;;5036297;28;20217;-91
2022/06/16 09:12:17;;;;;;;5.22;2.60;;;36.80;73.80;;;;;;5035300;28;20241;-92
2022/06/16 09:15:13;;;;;;;3.38;3.03;;;36.70;73.80;;;;;;5036172;28;20300;-92
2022/06/16 09:18:02;;;;;;;2.90;2.65;;;36.10;75.60;;;;;;5036483;28;20209;-93
2022/06/16 09:20:56;;;;;;;3.63;3.05;;;36.40;73.70;;;;;;5035700;28;20276;-92
2022/06/16 09:23:41;;;;;;;3.65;2.78;;;36.10;72.40;;;;;;5036312;28;20205;-92
2022/06/16 09:26:18;;;;;;;2.95;2.75;;;35.20;76.90;;;;;;5035882;28;20241;-92
2022/06/16 09:28:53;;;;;;;3.45;3.17;;;35.10;75.70;;;;;;5035820;28;20221;-92
2022/06/16 09:31:27;;;;;;;5.05;3.13;;;34.70;74.50;;;;;;5035521;28;20277;-92
2022/06/16 09:34:03;;;;;;;3.13;2.90;;;34.60;77.00;;;;;;5036521;28;20208;-92
2022/06/16 09:36:39;;;;;;;3.70;3.30;;;34.60;75.40;;;;;;5041194;28;20205;-93
2022/06/16 09:39:18;;;;;;;5.53;3.00;;;35.20;74.10;;;;;;5036247;28;20225;-92
2022/06/16 09:45:02;;;;;;;2.92;2.72;;;35.20;75.00;;;;;;5035489;28;20294;-93
2022/06/16 09:47:40;;;;;;;3.30;2.78;;;35.00;74.30;;;;;;5035371;28;20225;-92
2022/06/16 09:50:16;;;;;;;2.60;2.40;;;34.30;75.30;;;;;;5035794;28;20275;-92
2022/06/16 09:52:51;;;;;;;3.28;2.97;;;34.00;76.70;;;;;;5035991;28;20285;-92
2022/06/16 09:55:24;;;;;;;2.83;2.60;;;34.30;76.90;;;;;;5035506;28;20209;-93
2022/06/16 09:57:56;;;;;;;5.68;2.90;;;34.80;75.30;;;;;;5042027;28;20290;-92
2022/06/16 10:00:27;;;;;;;3.40;2.95;;;35.40;74.00;;;;;;5035650;28;20222;-92
2022/06/16 10:03:02;;;;;;;2.83;2.55;;;35.20;73.80;;;;;;5036211;28;20239;-92
2022/06/16 10:05:39;;;;;;;3.47;3.05;;;34.60;72.50;;;;;;5035457;28;20247;-92
2022/06/16 10:08:14;;;;;;;3.30;2.90;;;34.40;74.20;;;;;;5034436;28;20310;-92
2022/06/16 10:10:52;;;;;;;2.92;2.72;;;34.40;74.70;;;;;;5034920;28;20275;-92
2022/06/16 10:13:26;;;;;;;3.10;2.65;;;34.50;74.60;;;;;;5035438;28;20205;-92
2022/06/16 10:16:11;;;;;;;2.88;2.55;;;35.00;74.60;;;;;;5034877;28;20228;-91
2022/06/16 10:18:40;;;;;;;2.80;2.60;;;34.90;73.30;;;;;;5035343;28;20268;-93
2022/06/16 10:21:10;;;;;;;6.05;3.15;;;35.70;74.00;;;;;;5034301;28;20248;-92
2022/06/16 10:23:43;;;;;;;3.13;2.63;;;35.90;71.10;;;;;;5034474;28;20198;-93
2022/06/16 10:26:12;;;;;;;2.95;2.50;;;36.00;71.60;;;;;;5034709;28;20243;-92
2022/06/16 10:28:59;;;;;;;3.50;3.20;;;35.80;71.00;;;;;;5034310;28;20221;-92
2022/06/16 10:31:40;;;;;;;2.78;2.58;;;35.60;70.50;;;;;;5034663;28;20264;-92
2022/06/16 10:34:19;;;;;;;3.70;3.40;;;35.00;72.50;;;;;;5034522;28;20208;-92
2022/06/16 10:36:55;;;;;;;3.42;3.13;;;35.20;72.60;;;;;;5034833;28;20205;-92
2022/06/16 10:39:28;;;;;;;4.32;3.05;;;35.30;70.50;;;;;;5034818;28;20225;-91
2022/06/16 10:42:03;;;;;;;4.38;2.75;;;35.10;71.20;;;;;;5034514;28;20293;-92
2022/06/16 10:44:33;;;;;;;3.42;2.58;;;35.00;70.90;;;;;;5033979;28;20229;-92
2022/06/16 10:47:07;;;;;;;3.17;2.70;;;35.20;69.40;;;;;;5034044;28;20233;-92
2022/06/16 10:49:38;;;;;;;3.08;2.80;;;35.80;71.80;;;;;;5034484;28;20222;-92
2022/06/16 10:52:11;;;;;;;2.90;2.67;;;36.00;70.30;;;;;;5034194;28;20206;-92
2022/06/16 10:54:46;;;;;;;2.67;2.47;;;36.00;70.10;;;;;;5034025;28;20248;-92
2022/06/16 10:57:19;;;;;;;3.03;2.60;;;35.40;66.30;;;;;;5034255;28;20225;-92
2022/06/16 10:59:50;;;;;;;4.35;2.75;;;35.70;67.20;;;;;;5034278;28;20257;-92
2022/06/16 11:02:25;;;;;;;2.95;2.65;;;36.00;72.20;;;;;;5033907;28;20230;-92
2022/06/16 11:05:01;;;;;;;3.08;2.33;;;36.30;68.30;;;;;;5034278;28;20213;-92
2022/06/16 11:07:36;;;;;;;2.92;2.67;;;36.50;67.50;;;;;;5033916;28;20308;-92
2022/06/16 11:10:09;;;;;;;3.70;2.90;;;36.10;67.80;;;;;;5033803;28;20305;-92
2022/06/16 11:12:41;;;;;;;3.60;2.95;;;35.90;68.30;;;;;;5033866;28;20288;-92
2022/06/16 11:15:31;;;;;;;3.28;2.97;;;35.30;67.70;;;;;;5037019;28;20256;-92
2022/06/16 11:18:03;;;;;;;3.75;2.78;;;34.90;67.10;;;;;;5033826;28;20204;-93
2022/06/16 11:20:39;;;;;;;2.63;2.42;;;34.20;66.20;;;;;;5032944;28;20293;-92
2022/06/16 11:23:28;;;;;;;5.78;2.45;;;34.10;68.60;;;;;;5034189;28;20205;-92
2022/06/16 11:26:01;;;;;;;4.10;2.47;;;34.40;69.50;;;;;;5034186;28;20206;-92
2022/06/16 11:28:30;;;;;;;4.82;2.92;;;34.90;66.90;;;;;;5033367;28;20237;-92
2022/06/16 11:31:02;;;;;;;2.53;2.33;;;35.30;67.60;;;;;;5034734;28;20205;-93
2022/06/16 11:34:13;;;;;;;3.17;2.50;;;35.50;68.10;;;;;;5037585;28;20297;-92
2022/06/16 11:37:08;;;;;;;5.30;2.78;;;35.40;66.40;;;;;;5037947;28;20265;-91
2022/06/16 11:39:54;;;;;;;2.60;2.40;;;34.90;64.70;;;;;;5033669;28;20240;-93
2022/06/16 11:42:41;;;;;;;4.22;2.67;;;34.70;65.10;;;;;;5033171;28;20225;-93
2022/06/16 11:45:18;;;;;;;2.63;2.42;;;35.20;66.00;;;;;;5032884;28;20225;-92
2022/06/16 11:47:55;;;;;;;2.85;2.65;;;35.10;68.70;;;;;;5033284;28;20225;-92
2022/06/16 11:50:32;;;;;;;5.05;2.55;;;35.10;66.40;;;;;;5033188;28;20221;-92
2022/06/16 11:53:09;;;;;;;2.50;2.40;;;35.10;66.50;;;;;;5033312;28;20201;-92
2022/06/16 11:55:41;;;;;;;3.78;2.60;;;34.90;67.00;;;;;;5033458;28;20205;-92
2022/06/16 11:58:30;;;;;;;2.95;2.65;;;34.70;64.60;;;;;;5033159;28;20290;-92
2022/06/16 12:01:03;;;;;;;4.10;2.83;;;34.70;63.80;;;;;;5033147;28;20209;-92
2022/06/16 12:03:50;;;;;;;2.58;2.38;;;35.00;64.10;;;;;;5033082;28;20206;-92
2022/06/16 12:06:32;;;;;;;3.63;2.53;;;34.90;66.30;;;;;;5032774;28;20212;-92
2022/06/16 12:09:13;;;;;;;3.13;2.72;;;35.30;65.20;;;;;;5033097;28;20321;-92
2022/06/16 12:11:51;;;;;;;2.53;2.17;;;35.30;64.40;;;;;;5032428;28;20221;-92
2022/06/16 12:14:34;;;;;;;3.00;2.80;;;35.70;64.30;;;;;;5033310;28;20213;-92
2022/06/16 12:17:09;;;;;;;3.08;2.72;;;35.70;64.80;;;;;;5032974;28;20233;-92
2022/06/16 12:19:47;;;;;;;2.95;2.75;;;35.10;63.60;;;;;;5032765;28;20217;-90
2022/06/16 12:22:27;;;;;;;4.00;3.33;;;34.70;64.30;;;;;;5033487;28;20201;-92
2022/06/16 12:25:02;;;;;;;3.13;2.83;;;34.10;65.80;;;;;;5032941;28;20205;-92
2022/06/16 12:27:45;;;;;;;3.35;2.40;;;33.80;67.80;;;;;;5033112;28;20232;-92
2022/06/16 12:30:21;;;;;;;4.43;2.55;;;33.60;66.40;;;;;;5032473;28;20300;-92
2022/06/16 12:32:59;;;;;;;3.53;3.03;;;33.20;66.30;;;;;;5032343;28;20264;-91
2022/06/16 12:35:35;;;;;;;2.90;2.70;;;33.00;67.20;;;;;;5032697;28;20213;-92
2022/06/16 12:38:11;;;;;;;8.45;3.53;;;32.90;67.80;;;;;;5032546;28;20198;-92
2022/06/16 12:40:43;;;;;;;2.80;2.60;;;33.20;68.00;;;;;;5033214;28;20289;-91
2022/06/16 12:43:18;;;;;;;2.65;2.45;;;33.60;66.80;;;;;;5032907;28;20218;-91
2022/06/16 12:45:50;;;;;;;3.20;2.83;;;33.90;65.30;;;;;;5032788;28;20214;-92
2022/06/16 12:48:23;;;;;;;6.43;2.63;;;33.70;65.40;;;;;;5032521;28;20265;-92
2022/06/16 12:50:57;;;;;;;4.38;2.67;;;33.40;66.70;;;;;;5031868;28;20236;-92
2022/06/16 12:53:31;;;;;;;3.55;2.97;;;33.50;63.50;;;;;;5032712;28;20210;-92
2022/06/16 12:56:05;;;;;;;2.50;2.33;;;33.10;64.50;;;;;;5032496;28;20206;-92
2022/06/16 12:58:38;;;;;;;3.00;2.67;;;33.20;66.40;;;;;;5032165;28;20221;-92
2022/06/16 13:01:11;;;;;;;2.72;2.53;;;33.40;66.10;;;;;;5031503;28;20222;-93
2022/06/16 13:04:02;;;;;;;2.47;2.28;;;33.20;66.90;;;;;;5033614;28;20210;-92
2022/06/16 13:06:33;;;;;;;2.40;2.20;;;33.10;65.30;;;;;;5036919;28;20211;-93
2022/06/16 13:09:11;;;;;;;2.83;2.63;;;32.90;66.40;;;;;;5035039;28;20226;-93
2022/06/16 13:11:47;;;;;;;4.53;2.88;;;33.10;67.20;;;;;;5032533;28;20245;-92
2022/06/16 13:14:22;;;;;;;3.17;2.90;;;33.10;66.40;;;;;;5032686;28;20202;-93
2022/06/16 13:16:53;;;;;;;2.65;2.42;;;33.00;67.40;;;;;;5032571;28;20210;-92
2022/06/16 13:19:25;;;;;;;3.65;2.92;;;32.90;67.10;;;;;;5032197;28;20230;-92
2022/06/16 13:22:00;;;;;;;2.78;2.53;;;32.80;66.70;;;;;;5031844;28;20208;-92
2022/06/16 13:24:40;;;;;;;3.25;2.95;;;32.50;67.20;;;;;;5032290;28;20210;-92
2022/06/16 13:27:23;;;;;;;3.20;2.85;;;32.20;66.90;;;;;;5031945;28;20237;-92
2022/06/16 13:30:21;;;;;;;3.63;3.20;;;32.30;69.50;;;;;;5031640;28;20288;-92
2022/06/16 13:33:14;;;;;;;2.78;2.58;;;32.20;68.80;;;;;;4998464;28;20210;-92
2022/06/16 13:36:06;;;;;;;3.08;2.78;;;32.00;69.40;;;;;;5032285;28;20235;-92
2022/06/16 13:38:49;;;;;;;2.90;2.60;;;31.60;68.90;;;;;;5032077;28;20246;-93